createdAt,value
2022-09-21T00:00:25.639Z,4.22
2022-09-21T00:01:05.914Z,2.53
2022-09-21T00:01:37.891Z,3.42
2022-09-21T00:02:10.682Z,4.03
2022-09-21T00:02:42.555Z,2.90
2022-09-21T00:03:15.435Z,3.53
2022-09-21T00:03:48.962Z,2.08
2022-09-21T00:04:20.753Z,2.60
2022-09-21T00:04:52.510Z,3.05
2022-09-21T00:05:25.400Z,3.95
2022-09-21T00:06:02.805Z,5.65
2022-09-21T00:06:35.232Z,3.10
2022-09-21T00:07:07.952Z,2.97
2022-09-21T00:07:39.722Z,2.58
2022-09-21T00:08:13.667Z,3.83
2022-09-21T00:08:48.955Z,2.78
2022-09-21T00:09:20.738Z,5.65
2022-09-21T00:09:52.524Z,2.70
2022-09-21T00:10:25.239Z,2.72
2022-09-21T00:10:57.062Z,5.68
2022-09-21T00:11:30.768Z,5.45
2022-09-21T00:12:03.533Z,3.33
2022-09-21T00:12:38.461Z,2.88
2022-09-21T00:13:12.366Z,2.78
2022-09-21T00:13:46.582Z,3.60
2022-09-21T00:14:19.681Z,5.70
2022-09-21T00:14:52.419Z,3.05
2022-09-21T00:15:24.761Z,5.13
2022-09-21T00:15:56.710Z,3.50
2022-09-21T00:16:30.176Z,1.85
2022-09-21T00:17:01.969Z,3.65
2022-09-21T00:17:34.072Z,2.75
2022-09-21T00:18:06.853Z,2.95
2022-09-21T00:18:38.883Z,3.58
2022-09-21T00:19:12.652Z,2.67
2022-09-21T00:19:44.417Z,2.88
2022-09-21T00:20:16.393Z,3.17
2022-09-21T00:20:49.231Z,2.65
2022-09-21T00:21:21.733Z,3.33
2022-09-21T00:21:54.913Z,2.50
2022-09-21T00:22:27.728Z,3.42
2022-09-21T00:22:59.489Z,3.88
2022-09-21T00:23:31.274Z,5.65
2022-09-21T00:24:05.749Z,3.15
2022-09-21T00:24:37.540Z,2.40
2022-09-21T00:25:09.704Z,2.90
2022-09-21T00:25:41.492Z,2.58
2022-09-21T00:26:16.784Z,3.63
2022-09-21T00:26:48.585Z,4.95
2022-09-21T00:27:21.293Z,4.10
2022-09-21T00:27:54.419Z,3.17
2022-09-21T00:28:26.253Z,3.53
2022-09-21T00:29:02.302Z,3.38
2022-09-21T00:29:34.168Z,2.78
2022-09-21T00:30:07.874Z,3.10
2022-09-21T00:30:40.619Z,4.68
2022-09-21T00:31:14.517Z,3.30
2022-09-21T00:31:47.266Z,4.32
2022-09-21T00:32:20.108Z,2.83
2022-09-21T00:32:53.690Z,3.42
2022-09-21T00:33:25.793Z,4.88
2022-09-21T00:33:59.974Z,4.60
2022-09-21T00:34:32.120Z,5.28
2022-09-21T00:35:05.972Z,3.45
2022-09-21T00:35:38.369Z,3.75
2022-09-21T00:36:13.269Z,2.70
2022-09-21T00:36:45.036Z,2.67
2022-09-21T00:37:16.868Z,3.25
2022-09-21T00:37:49.646Z,3.05
2022-09-21T00:38:21.477Z,2.95
2022-09-21T00:38:56.271Z,3.95
2022-09-21T00:39:30.375Z,3.92
2022-09-21T00:40:02.841Z,2.97
2022-09-21T00:40:34.674Z,3.90
2022-09-21T00:41:09.786Z,3.08
2022-09-21T00:41:41.601Z,4.20
2022-09-21T00:42:16.959Z,3.30
2022-09-21T00:42:50.667Z,4.82
2022-09-21T00:43:22.446Z,7.10
2022-09-21T00:44:24.828Z,9.25
2022-09-21T00:44:57.557Z,9.65
2022-09-21T00:45:31.081Z,10.98
2022-09-21T00:46:05.858Z,5.22
2022-09-21T00:46:41.138Z,3.92
2022-09-21T00:47:16.098Z,5.35
2022-09-21T00:47:50.477Z,4.10
2022-09-21T00:48:23.460Z,3.30
2022-09-21T00:48:55.701Z,5.60
2022-09-21T00:49:28.256Z,3.33
2022-09-21T00:50:03.493Z,3.35
2022-09-21T00:50:37.713Z,3.35
2022-09-21T00:51:09.931Z,5.50
2022-09-21T00:51:43.264Z,4.07
2022-09-21T00:52:17.739Z,2.40
2022-09-21T00:52:52.116Z,2.75
2022-09-21T00:53:25.218Z,3.08
2022-09-21T00:54:01.665Z,2.95
2022-09-21T00:54:40.654Z,2.40
2022-09-21T00:55:18.045Z,4.03
2022-09-21T00:55:55.359Z,3.85
2022-09-21T00:56:28.704Z,3.03
2022-09-21T00:57:02.888Z,3.67
2022-09-21T00:57:35.788Z,4.43
2022-09-21T00:58:13.111Z,3.47
2022-09-21T00:58:47.759Z,3.85
2022-09-21T00:59:21.793Z,2.40
2022-09-21T00:59:57.717Z,2.85
2022-09-21T01:00:29.709Z,7.00
2022-09-21T01:01:01.633Z,3.25
2022-09-21T01:01:34.628Z,2.70
2022-09-21T01:02:06.550Z,3.85
2022-09-21T01:02:39.025Z,3.88
2022-09-21T01:03:12.433Z,3.03
2022-09-21T01:03:46.761Z,2.40
2022-09-21T01:04:19.327Z,3.00
2022-09-21T01:04:53.857Z,3.17
2022-09-21T01:05:26.615Z,3.50
2022-09-21T01:05:58.440Z,2.58
2022-09-21T01:06:32.582Z,2.60
2022-09-21T01:07:12.093Z,6.45
2022-09-21T01:07:47.425Z,2.70
2022-09-21T01:08:20.896Z,3.88
2022-09-21T01:08:56.148Z,2.92
2022-09-21T01:09:28.609Z,3.03
2022-09-21T01:10:09.239Z,2.88
2022-09-21T01:11:03.357Z,4.60
2022-09-21T01:11:41.955Z,3.30
2022-09-21T01:12:31.065Z,2.53
2022-09-21T01:13:15.157Z,3.05
2022-09-21T01:13:57.652Z,3.47
2022-09-21T01:14:48.343Z,3.28
2022-09-21T01:15:30.004Z,2.53
2022-09-21T01:16:09.073Z,3.95
2022-09-21T01:16:49.885Z,2.95
2022-09-21T01:17:31.031Z,3.30
2022-09-21T01:18:13.731Z,3.20
2022-09-21T01:18:52.338Z,2.83
2022-09-21T01:19:46.938Z,2.97
2022-09-21T01:20:55.161Z,4.10
2022-09-21T01:21:30.969Z,3.22
2022-09-21T01:22:13.960Z,4.28
2022-09-21T01:22:59.712Z,2.75
2022-09-21T01:24:04.151Z,4.07
2022-09-21T01:24:51.145Z,3.53
2022-09-21T01:25:32.117Z,2.40
2022-09-21T01:26:15.908Z,3.10
2022-09-21T01:27:23.089Z,3.13
2022-09-21T01:28:08.666Z,5.28
2022-09-21T01:29:10.000Z,3.67
2022-09-21T01:29:47.095Z,2.35
2022-09-21T01:30:20.219Z,3.85
2022-09-21T01:30:55.061Z,2.25
2022-09-21T01:31:31.980Z,3.08
2022-09-21T01:32:09.165Z,4.45
2022-09-21T01:32:46.140Z,4.22
2022-09-21T01:33:25.836Z,2.65
2022-09-21T01:34:01.647Z,3.38
2022-09-21T01:34:38.573Z,3.83
2022-09-21T01:35:15.825Z,2.38
2022-09-21T01:35:50.947Z,2.30
2022-09-21T01:36:27.481Z,3.65
2022-09-21T01:37:03.226Z,2.88
2022-09-21T01:37:39.988Z,3.17
2022-09-21T01:38:17.496Z,2.65
2022-09-21T01:38:52.985Z,3.33
2022-09-21T01:39:27.368Z,3.25
2022-09-21T01:40:05.089Z,2.90
2022-09-21T01:40:41.321Z,3.65
2022-09-21T01:41:18.129Z,2.67
2022-09-21T01:41:51.904Z,3.60
2022-09-21T01:42:26.688Z,6.22
2022-09-21T01:43:02.268Z,5.90
2022-09-21T01:43:38.586Z,4.03
2022-09-21T01:44:15.836Z,6.35
2022-09-21T01:44:48.814Z,3.75
2022-09-21T01:45:27.461Z,3.75
2022-09-21T01:46:02.023Z,7.25
2022-09-21T01:46:35.020Z,4.13
2022-09-21T01:47:12.413Z,5.38
2022-09-21T01:47:47.832Z,5.15
2022-09-21T01:48:22.255Z,3.30
2022-09-21T01:49:00.788Z,3.55
2022-09-21T01:49:37.317Z,4.85
2022-09-21T01:50:11.771Z,3.88
2022-09-21T01:50:48.684Z,4.30
2022-09-21T01:51:22.536Z,2.88
2022-09-21T01:51:59.341Z,2.97
2022-09-21T01:52:37.164Z,4.10
2022-09-21T01:53:13.778Z,5.03
2022-09-21T01:53:51.223Z,3.47
2022-09-21T01:54:29.593Z,3.00
2022-09-21T01:55:06.212Z,3.50
2022-09-21T01:55:44.293Z,3.47
2022-09-21T01:56:21.565Z,3.35
2022-09-21T01:56:58.327Z,5.03
2022-09-21T01:57:38.764Z,4.47
2022-09-21T01:58:15.041Z,3.85
2022-09-21T01:58:55.809Z,6.03
2022-09-21T01:59:37.737Z,3.60
2022-09-21T02:00:10.563Z,3.15
2022-09-21T02:00:47.976Z,3.58
2022-09-21T02:01:23.024Z,4.25
2022-09-21T02:01:59.637Z,6.10
2022-09-21T02:02:39.224Z,4.30
2022-09-21T02:03:16.022Z,5.22
2022-09-21T02:03:52.945Z,4.60
2022-09-21T02:04:25.337Z,3.63
2022-09-21T02:04:57.813Z,6.25
2022-09-21T02:05:31.371Z,3.40
2022-09-21T02:06:05.708Z,3.42
2022-09-21T02:06:39.924Z,4.47
2022-09-21T02:07:11.883Z,3.95
2022-09-21T02:07:45.280Z,5.05
2022-09-21T02:08:17.551Z,3.85
2022-09-21T02:08:49.381Z,4.05
2022-09-21T02:09:22.329Z,5.53
2022-09-21T02:09:56.011Z,4.40
2022-09-21T02:10:33.284Z,6.40
2022-09-21T02:11:06.733Z,3.70
2022-09-21T02:11:42.412Z,4.00
2022-09-21T02:12:18.757Z,6.55
2022-09-21T02:12:56.746Z,4.55
2022-09-21T02:13:33.176Z,3.72
2022-09-21T02:14:07.444Z,4.57
2022-09-21T02:14:41.785Z,4.65
2022-09-21T02:15:13.935Z,5.18
2022-09-21T02:16:01.933Z,3.58
2022-09-21T02:16:38.728Z,3.60
2022-09-21T02:17:31.171Z,5.90
2022-09-21T02:18:10.466Z,3.53
2022-09-21T02:18:50.647Z,3.80
2022-09-21T02:19:38.084Z,5.20
2022-09-21T02:20:19.322Z,3.78
2022-09-21T02:20:57.009Z,6.22
2022-09-21T02:21:39.826Z,5.25
2022-09-21T02:22:15.739Z,4.57
2022-09-21T02:22:59.397Z,5.13
2022-09-21T02:23:43.587Z,5.03
2022-09-21T02:24:24.997Z,3.72
2022-09-21T02:25:05.303Z,4.07
2022-09-21T02:25:45.270Z,5.25
2022-09-21T02:26:22.553Z,5.82
2022-09-21T02:27:00.845Z,7.13
2022-09-21T02:27:39.271Z,4.85
2022-09-21T02:28:23.677Z,7.13
2022-09-21T02:29:02.685Z,4.85
2022-09-21T02:29:50.129Z,3.80
2022-09-21T02:30:24.870Z,7.50
2022-09-21T02:31:05.375Z,4.78
2022-09-21T02:31:47.793Z,7.63
2022-09-21T02:32:28.157Z,5.80
2022-09-21T02:33:06.833Z,4.40
2022-09-21T02:33:47.149Z,6.55
2022-09-21T02:34:27.150Z,8.90
2022-09-21T02:35:03.685Z,5.75
2022-09-21T02:35:42.588Z,4.60
2022-09-21T02:36:22.302Z,7.50
2022-09-21T02:37:00.357Z,6.07
2022-09-21T02:37:37.173Z,7.78
2022-09-21T02:38:15.580Z,5.07
2022-09-21T02:38:53.319Z,3.63
2022-09-21T02:39:32.885Z,4.32
2022-09-21T02:40:13.118Z,5.13
2022-09-21T02:40:53.840Z,4.43
2022-09-21T02:41:31.287Z,4.32
2022-09-21T02:42:10.429Z,4.60
2022-09-21T02:42:46.312Z,5.53
2022-09-21T02:43:23.082Z,6.22
2022-09-21T02:44:04.489Z,6.15
2022-09-21T02:44:42.567Z,4.18
2022-09-21T02:45:19.174Z,7.05
2022-09-21T02:45:57.672Z,4.03
2022-09-21T02:46:34.442Z,4.70
2022-09-21T02:47:10.470Z,3.83
2022-09-21T02:47:48.332Z,6.53
2022-09-21T02:48:26.396Z,5.70
2022-09-21T02:49:02.753Z,5.75
2022-09-21T02:49:40.009Z,5.10
2022-09-21T02:50:18.097Z,4.78
2022-09-21T02:50:55.564Z,8.20
2022-09-21T02:51:31.714Z,3.40
2022-09-21T02:52:07.689Z,6.38
2022-09-21T02:52:43.746Z,3.80
2022-09-21T02:53:20.070Z,5.05
2022-09-21T02:53:54.292Z,4.20
2022-09-21T02:54:30.820Z,3.38
2022-09-21T02:55:04.940Z,4.63
2022-09-21T02:55:37.626Z,3.95
2022-09-21T02:56:11.737Z,5.57
2022-09-21T02:56:46.181Z,3.72
2022-09-21T02:57:21.732Z,3.85
2022-09-21T02:57:56.638Z,3.63
2022-09-21T02:58:29.469Z,5.38
2022-09-21T02:59:04.452Z,4.50
2022-09-21T02:59:37.328Z,3.42
2022-09-21T03:00:12.125Z,7.35
2022-09-21T03:00:43.983Z,6.95
2022-09-21T03:01:18.310Z,4.00
2022-09-21T03:01:51.337Z,4.65
2022-09-21T03:02:23.142Z,6.57
2022-09-21T03:02:55.881Z,6.75
2022-09-21T03:03:27.827Z,6.00
2022-09-21T03:03:59.909Z,4.25
2022-09-21T03:04:32.920Z,3.67
2022-09-21T03:05:05.642Z,4.50
2022-09-21T03:05:37.429Z,4.32
2022-09-21T03:06:10.200Z,4.45
2022-09-21T03:06:41.997Z,5.15
2022-09-21T03:07:14.743Z,4.43
2022-09-21T03:07:47.969Z,7.15
2022-09-21T03:08:19.980Z,6.32
2022-09-21T03:08:51.837Z,4.85
2022-09-21T03:09:24.601Z,3.78
2022-09-21T03:09:56.380Z,3.88
2022-09-21T03:10:28.135Z,3.63
2022-09-21T03:11:00.915Z,5.75
2022-09-21T03:11:33.772Z,4.22
2022-09-21T03:12:06.942Z,4.55
2022-09-21T03:12:38.805Z,5.53
2022-09-21T03:13:10.985Z,6.32
2022-09-21T03:13:44.504Z,7.80
2022-09-21T03:14:18.261Z,7.22
2022-09-21T03:14:51.660Z,5.15
2022-09-21T03:15:26.002Z,3.35
2022-09-21T03:16:03.483Z,4.45
2022-09-21T03:16:35.348Z,5.75
2022-09-21T03:17:07.108Z,4.55
2022-09-21T03:17:38.911Z,3.13
2022-09-21T03:18:12.475Z,4.10
2022-09-21T03:18:44.429Z,4.00
2022-09-21T03:19:17.480Z,3.90
2022-09-21T03:19:49.274Z,4.30
2022-09-21T03:20:21.089Z,3.67
2022-09-21T03:20:53.796Z,4.15
2022-09-21T03:21:25.567Z,4.15
2022-09-21T03:21:58.577Z,4.32
2022-09-21T03:22:30.339Z,4.80
2022-09-21T03:23:02.660Z,4.45
2022-09-21T03:23:35.398Z,4.05
2022-09-21T03:24:07.400Z,4.85
2022-09-21T03:24:48.187Z,7.20
2022-09-21T03:25:21.021Z,6.60
2022-09-21T03:25:52.779Z,4.10
2022-09-21T03:26:24.628Z,4.93
2022-09-21T03:26:57.387Z,5.07
2022-09-21T03:27:29.480Z,4.90
2022-09-21T03:28:02.414Z,8.38
2022-09-21T03:28:35.182Z,5.35
2022-09-21T03:29:07.068Z,5.53
2022-09-21T03:29:38.961Z,4.18
2022-09-21T03:30:12.865Z,3.90
2022-09-21T03:30:46.134Z,4.65
2022-09-21T03:31:18.151Z,4.82
2022-09-21T03:31:53.565Z,3.42
2022-09-21T03:32:26.792Z,3.88
2022-09-21T03:32:58.834Z,4.65
2022-09-21T03:33:31.536Z,7.10
2022-09-21T03:34:03.309Z,4.53
2022-09-21T03:34:35.325Z,4.57
2022-09-21T03:35:08.750Z,5.80
2022-09-21T03:35:40.632Z,3.70
2022-09-21T03:36:13.371Z,4.10
2022-09-21T03:36:45.116Z,9.98
2022-09-21T03:37:17.012Z,6.88
2022-09-21T03:37:51.305Z,5.40
2022-09-21T03:38:23.680Z,4.85
2022-09-21T03:38:55.586Z,3.75
2022-09-21T03:39:28.344Z,4.13
2022-09-21T03:40:00.251Z,3.92
2022-09-21T03:40:32.797Z,4.03
2022-09-21T03:41:05.816Z,4.80
2022-09-21T03:41:38.182Z,3.83
2022-09-21T03:42:10.518Z,3.40
2022-09-21T03:42:44.174Z,3.30
2022-09-21T03:43:16.692Z,3.40
2022-09-21T03:43:48.461Z,3.65
2022-09-21T03:44:21.205Z,5.32
2022-09-21T03:44:52.968Z,4.28
2022-09-21T03:45:24.828Z,3.90
2022-09-21T03:45:58.954Z,4.05
2022-09-21T03:46:30.794Z,3.95
2022-09-21T03:47:02.591Z,4.82
2022-09-21T03:47:34.920Z,4.00
2022-09-21T03:48:07.855Z,4.22
2022-09-21T03:48:42.297Z,5.55
2022-09-21T03:49:14.149Z,4.97
2022-09-21T03:49:46.872Z,7.15
2022-09-21T03:50:18.705Z,3.33
2022-09-21T03:50:50.948Z,3.60
2022-09-21T03:51:23.775Z,3.42
2022-09-21T03:51:56.015Z,5.72
2022-09-21T03:52:27.977Z,4.53
2022-09-21T03:53:00.830Z,4.93
2022-09-21T03:53:32.612Z,5.53
2022-09-21T03:54:04.601Z,3.78
2022-09-21T03:54:37.510Z,3.97
2022-09-21T03:55:09.696Z,5.95
2022-09-21T03:55:41.659Z,4.80
2022-09-21T03:56:14.397Z,4.10
2022-09-21T03:56:47.274Z,5.35
2022-09-21T03:57:19.263Z,6.35
2022-09-21T03:57:52.074Z,3.45
2022-09-21T03:58:23.841Z,4.05
2022-09-21T03:58:55.760Z,3.80
2022-09-21T03:59:28.542Z,4.70
2022-09-21T04:00:00.349Z,3.45
2022-09-21T04:00:33.517Z,5.57
2022-09-21T04:01:06.699Z,6.30
2022-09-21T04:01:38.624Z,3.90
2022-09-21T04:02:11.438Z,7.13
2022-09-21T04:02:43.279Z,4.07
2022-09-21T04:03:15.041Z,4.25
2022-09-21T04:03:47.812Z,6.88
2022-09-21T04:04:20.265Z,5.75
2022-09-21T04:04:52.075Z,3.80
2022-09-21T04:05:25.227Z,4.45
2022-09-21T04:05:57.008Z,4.20
2022-09-21T04:06:29.131Z,3.30
2022-09-21T04:07:02.014Z,4.75
2022-09-21T04:07:35.008Z,5.10
2022-09-21T04:08:07.274Z,3.90
2022-09-21T04:08:39.320Z,3.35
2022-09-21T04:09:12.075Z,5.22
2022-09-21T04:09:43.888Z,6.07
2022-09-21T04:10:17.953Z,4.22
2022-09-21T04:10:50.694Z,3.50
2022-09-21T04:11:22.961Z,3.92
2022-09-21T04:11:54.785Z,3.60
2022-09-21T04:12:27.920Z,18.73
2022-09-21T04:13:01.184Z,32.65
2022-09-21T04:13:33.749Z,33.00
2022-09-21T04:14:06.512Z,21.52
2022-09-21T04:14:38.297Z,16.35
2022-09-21T04:15:11.136Z,11.15
2022-09-21T04:15:43.921Z,8.05
2022-09-21T04:16:17.834Z,7.57
2022-09-21T04:16:51.956Z,6.88
2022-09-21T04:17:23.765Z,5.03
2022-09-21T04:17:55.783Z,5.07
2022-09-21T04:18:28.603Z,4.78
2022-09-21T04:19:00.441Z,5.32
2022-09-21T04:19:32.282Z,4.20
2022-09-21T04:20:06.004Z,4.78
2022-09-21T04:20:38.144Z,5.32
2022-09-21T04:21:09.975Z,4.60
2022-09-21T04:21:42.709Z,5.70
2022-09-21T04:22:14.538Z,4.10
2022-09-21T04:22:47.052Z,4.40
2022-09-21T04:23:19.864Z,6.82
2022-09-21T04:23:51.754Z,7.32
2022-09-21T04:24:23.977Z,5.15
2022-09-21T04:24:56.700Z,8.95
2022-09-21T04:25:28.700Z,4.68
2022-09-21T04:26:01.509Z,4.10
2022-09-21T04:26:35.272Z,5.85
2022-09-21T04:27:07.186Z,4.43
2022-09-21T04:27:40.308Z,3.80
2022-09-21T04:28:12.080Z,4.95
2022-09-21T04:28:43.834Z,3.92
2022-09-21T04:29:16.239Z,5.10
2022-09-21T04:29:48.956Z,4.15
2022-09-21T04:30:20.720Z,4.30
2022-09-21T04:30:53.623Z,4.40
2022-09-21T04:31:29.707Z,3.75
2022-09-21T04:32:01.916Z,6.75
2022-09-21T04:32:33.707Z,4.65
2022-09-21T04:33:06.469Z,9.60
2022-09-21T04:33:38.246Z,24.65
2022-09-21T04:34:13.297Z,40.03
2022-09-21T04:34:46.062Z,24.90
2022-09-21T04:35:17.881Z,12.98
2022-09-21T04:35:55.568Z,14.68
2022-09-21T04:36:30.212Z,10.63
2022-09-21T04:37:05.109Z,9.15
2022-09-21T04:37:37.866Z,8.57
2022-09-21T04:38:09.621Z,6.20
2022-09-21T04:38:41.385Z,5.95
2022-09-21T04:39:14.127Z,4.93
2022-09-21T04:39:45.872Z,5.25
2022-09-21T04:40:17.787Z,7.38
2022-09-21T04:40:56.996Z,6.47
2022-09-21T04:41:28.779Z,4.53
2022-09-21T04:42:00.586Z,5.45
2022-09-21T04:42:34.197Z,4.32
2022-09-21T04:43:06.104Z,4.53
2022-09-21T04:43:37.931Z,3.90
2022-09-21T04:44:10.701Z,3.80
2022-09-21T04:44:42.627Z,4.82
2022-09-21T04:45:14.503Z,8.40
2022-09-21T04:45:47.856Z,4.15
2022-09-21T04:46:20.772Z,4.07
2022-09-21T04:46:54.071Z,3.60
2022-09-21T04:47:26.800Z,4.93
2022-09-21T04:47:58.579Z,3.88
2022-09-21T04:48:30.416Z,3.92
2022-09-21T04:49:03.145Z,4.88
2022-09-21T04:49:35.285Z,5.40
2022-09-21T04:50:08.137Z,9.30
2022-09-21T04:50:40.886Z,10.07
2022-09-21T04:51:14.509Z,3.92
2022-09-21T04:51:46.272Z,5.65
2022-09-21T04:52:19.294Z,3.95
2022-09-21T04:52:51.160Z,5.57
2022-09-21T04:53:23.004Z,5.20
2022-09-21T04:53:55.743Z,7.50
2022-09-21T04:54:27.507Z,4.95
2022-09-21T04:54:59.305Z,4.90
2022-09-21T04:55:32.063Z,4.43
2022-09-21T04:56:05.374Z,5.32
2022-09-21T04:56:38.221Z,4.35
2022-09-21T04:57:09.963Z,5.75
2022-09-21T04:57:41.740Z,4.00
2022-09-21T04:58:14.494Z,4.07
2022-09-21T04:58:46.324Z,4.80
2022-09-21T04:59:18.137Z,6.53
2022-09-21T04:59:50.856Z,7.55
2022-09-21T05:00:22.637Z,4.57
2022-09-21T05:00:55.193Z,4.40
2022-09-21T05:01:28.044Z,3.88
2022-09-21T05:02:01.221Z,3.75
2022-09-21T05:02:33.232Z,5.93
2022-09-21T05:03:06.003Z,3.60
2022-09-21T05:03:38.285Z,4.85
2022-09-21T05:04:10.066Z,4.40
2022-09-21T05:04:44.652Z,3.55
2022-09-21T05:05:19.969Z,4.15
2022-09-21T05:05:54.916Z,3.88
2022-09-21T05:06:27.712Z,33.50
2022-09-21T05:06:59.642Z,67.18
2022-09-21T05:07:32.466Z,74.90
2022-09-21T05:08:04.419Z,62.47
2022-09-21T05:08:55.050Z,56.05
2022-09-21T05:09:45.445Z,45.95
2022-09-21T05:10:17.350Z,30.88
2022-09-21T05:10:51.876Z,20.35
2022-09-21T05:11:24.988Z,15.82
2022-09-21T05:11:56.792Z,9.82
2022-09-21T05:12:29.097Z,8.50
2022-09-21T05:13:01.824Z,8.80
2022-09-21T05:13:33.663Z,7.85
2022-09-21T05:14:05.771Z,9.88
2022-09-21T05:14:38.493Z,5.00
2022-09-21T05:15:11.263Z,6.70
2022-09-21T05:15:43.106Z,4.50
2022-09-21T05:16:16.332Z,4.03
2022-09-21T05:16:49.603Z,4.65
2022-09-21T05:17:23.988Z,7.13
2022-09-21T05:17:55.759Z,3.88
2022-09-21T05:18:27.556Z,4.30
2022-09-21T05:19:00.329Z,5.65
2022-09-21T05:19:32.112Z,5.45
2022-09-21T05:20:05.617Z,5.45
2022-09-21T05:20:37.430Z,6.80
2022-09-21T05:21:11.192Z,4.13
2022-09-21T05:21:44.076Z,4.20
2022-09-21T05:22:16.069Z,5.05
2022-09-21T05:22:47.871Z,4.28
2022-09-21T05:23:20.622Z,3.72
2022-09-21T05:23:52.485Z,7.43
2022-09-21T05:24:24.513Z,4.40
2022-09-21T05:24:57.255Z,4.82
2022-09-21T05:25:29.408Z,3.85
2022-09-21T05:26:01.244Z,3.95
2022-09-21T05:26:33.991Z,4.13
2022-09-21T05:27:06.395Z,5.43
2022-09-21T05:27:38.189Z,5.00
2022-09-21T05:28:11.443Z,5.65
2022-09-21T05:28:43.835Z,4.70
2022-09-21T05:29:16.180Z,6.70
2022-09-21T05:29:49.501Z,6.20
2022-09-21T05:30:22.553Z,4.97
2022-09-21T05:31:16.570Z,5.72
2022-09-21T05:31:55.325Z,6.18
2022-09-21T05:32:41.380Z,5.20
2022-09-21T05:33:20.115Z,3.47
2022-09-21T05:33:56.072Z,5.60
2022-09-21T05:34:42.463Z,4.90
2022-09-21T05:35:24.350Z,5.63
2022-09-21T05:36:07.249Z,6.15
2022-09-21T05:36:50.515Z,6.55
2022-09-21T05:37:44.584Z,5.28
2022-09-21T05:38:18.978Z,4.43
2022-09-21T05:38:52.369Z,6.28
2022-09-21T05:39:24.576Z,5.32
2022-09-21T05:39:56.901Z,4.15
2022-09-21T05:40:30.223Z,5.20
2022-09-21T05:41:03.488Z,4.93
2022-09-21T05:41:36.027Z,6.70
2022-09-21T05:42:11.373Z,6.22
2022-09-21T05:42:43.854Z,4.85
2022-09-21T05:43:16.461Z,5.68
2022-09-21T05:43:49.812Z,4.85
2022-09-21T05:44:22.180Z,5.70
2022-09-21T05:44:55.243Z,5.25
2022-09-21T05:45:29.710Z,5.60
2022-09-21T05:46:05.668Z,7.30
2022-09-21T05:46:40.105Z,12.95
2022-09-21T05:47:25.044Z,6.68
2022-09-21T05:48:06.844Z,5.90
2022-09-21T05:48:42.890Z,7.28
2022-09-21T05:49:19.078Z,6.03
2022-09-21T05:50:03.449Z,4.97
2022-09-21T05:50:46.752Z,5.35
2022-09-21T05:51:30.589Z,7.90
2022-09-21T05:52:08.612Z,4.50
2022-09-21T05:52:48.986Z,6.50
2022-09-21T05:53:49.266Z,6.05
2022-09-21T05:54:30.850Z,8.63
2022-09-21T05:55:08.358Z,6.80
2022-09-21T05:55:51.668Z,9.88
2022-09-21T05:56:38.232Z,5.75
2022-09-21T05:57:19.696Z,6.60
2022-09-21T05:58:01.365Z,7.72
2022-09-21T05:58:40.807Z,6.85
2022-09-21T05:59:44.934Z,10.02
2022-09-21T06:00:19.421Z,10.27
2022-09-21T06:01:05.186Z,6.75
2022-09-21T06:01:47.136Z,10.25
2022-09-21T06:02:27.638Z,6.00
2022-09-21T06:03:25.808Z,8.00
2022-09-21T06:04:00.190Z,8.05
2022-09-21T06:04:32.488Z,6.43
2022-09-21T06:05:11.356Z,12.05
2022-09-21T06:05:43.908Z,8.27
2022-09-21T06:06:16.574Z,5.15
2022-09-21T06:06:49.609Z,7.93
2022-09-21T06:07:21.418Z,10.05
2022-09-21T06:07:53.211Z,7.13
2022-09-21T06:08:26.666Z,4.78
2022-09-21T06:08:58.456Z,6.72
2022-09-21T06:09:31.192Z,9.98
2022-09-21T06:10:03.144Z,5.82
2022-09-21T06:10:35.784Z,6.13
2022-09-21T06:11:08.541Z,9.25
2022-09-21T06:11:40.364Z,4.95
2022-09-21T06:12:12.200Z,5.57
2022-09-21T06:12:45.209Z,5.82
2022-09-21T06:13:17.520Z,6.97
2022-09-21T06:13:50.288Z,5.75
2022-09-21T06:14:25.467Z,5.70
2022-09-21T06:14:58.425Z,4.93
2022-09-21T06:15:30.257Z,7.90
2022-09-21T06:16:03.010Z,7.45
2022-09-21T06:16:39.414Z,7.47
2022-09-21T06:17:11.244Z,5.22
2022-09-21T06:17:43.389Z,13.93
2022-09-21T06:18:18.291Z,12.00
2022-09-21T06:18:50.249Z,9.43
2022-09-21T06:19:22.024Z,7.88
2022-09-21T06:19:55.046Z,7.25
2022-09-21T06:20:26.877Z,8.18
2022-09-21T06:20:58.649Z,5.43
2022-09-21T06:21:31.397Z,5.70
2022-09-21T06:22:03.200Z,7.07
2022-09-21T06:22:35.097Z,7.18
2022-09-21T06:23:09.665Z,7.25
2022-09-21T06:23:41.435Z,7.50
2022-09-21T06:24:13.257Z,7.60
2022-09-21T06:24:46.144Z,5.63
2022-09-21T06:25:20.133Z,5.07
2022-09-21T06:25:56.036Z,5.78
2022-09-21T06:26:30.925Z,6.65
2022-09-21T06:27:02.692Z,5.32
2022-09-21T06:27:34.543Z,7.97
2022-09-21T06:28:09.955Z,6.00
2022-09-21T06:28:41.736Z,5.40
2022-09-21T06:29:14.493Z,5.80
2022-09-21T06:29:46.259Z,6.65
2022-09-21T06:30:18.182Z,6.22
2022-09-21T06:30:53.092Z,5.10
2022-09-21T06:31:26.190Z,11.05
2022-09-21T06:31:59.789Z,8.18
2022-09-21T06:32:31.648Z,4.43
2022-09-21T06:33:04.678Z,5.05
2022-09-21T06:33:38.748Z,5.40
2022-09-21T06:34:10.501Z,4.72
2022-09-21T06:34:42.797Z,6.32
2022-09-21T06:35:15.593Z,4.93
2022-09-21T06:35:52.526Z,5.60
2022-09-21T06:36:25.377Z,6.90
2022-09-21T06:36:57.242Z,7.05
2022-09-21T06:37:28.985Z,5.40
2022-09-21T06:38:02.774Z,5.95
2022-09-21T06:38:35.241Z,5.03
2022-09-21T06:39:08.183Z,5.85
2022-09-21T06:39:40.006Z,5.53
2022-09-21T06:40:11.823Z,5.40
2022-09-21T06:40:44.633Z,5.25
2022-09-21T06:41:21.044Z,8.98
2022-09-21T06:41:54.231Z,22.23
2022-09-21T06:42:27.622Z,9.65
2022-09-21T06:43:01.291Z,13.88
2022-09-21T06:43:34.355Z,13.90
2022-09-21T06:44:06.614Z,14.35
2022-09-21T06:44:38.492Z,8.02
2022-09-21T06:45:10.731Z,8.45
2022-09-21T06:45:43.543Z,7.03
2022-09-21T06:46:15.513Z,7.97
2022-09-21T06:46:47.393Z,6.97
2022-09-21T06:47:20.162Z,6.53
2022-09-21T06:47:52.021Z,6.75
2022-09-21T06:48:24.211Z,5.18
2022-09-21T06:48:58.434Z,6.38
2022-09-21T06:49:30.217Z,5.75
2022-09-21T06:50:02.995Z,6.55
2022-09-21T06:50:35.837Z,7.97
2022-09-21T06:51:07.632Z,5.22
2022-09-21T06:51:40.394Z,6.32
2022-09-21T06:52:12.174Z,5.95
2022-09-21T06:52:43.941Z,4.70
2022-09-21T06:53:17.587Z,5.65
2022-09-21T06:53:49.415Z,6.38
2022-09-21T06:54:22.406Z,6.00
2022-09-21T06:54:54.193Z,4.93
2022-09-21T06:55:26.036Z,5.30
2022-09-21T06:56:02.730Z,5.82
2022-09-21T06:56:35.598Z,6.03
2022-09-21T06:57:08.340Z,8.18
2022-09-21T06:57:40.468Z,6.03
2022-09-21T06:58:13.245Z,6.07
2022-09-21T06:58:47.445Z,5.50
2022-09-21T06:59:20.281Z,5.80
2022-09-21T06:59:52.039Z,5.95
2022-09-21T07:00:23.783Z,5.65
2022-09-21T07:00:56.638Z,5.68
2022-09-21T07:01:28.585Z,6.28
2022-09-21T07:02:00.536Z,7.85
2022-09-21T07:02:33.373Z,5.22
2022-09-21T07:03:05.307Z,12.15
2022-09-21T07:03:38.703Z,5.15
2022-09-21T07:04:12.192Z,9.38
2022-09-21T07:04:44.921Z,4.80
2022-09-21T07:05:16.886Z,6.63
2022-09-21T07:05:49.518Z,5.00
2022-09-21T07:06:22.397Z,4.75
2022-09-21T07:06:54.170Z,5.25
2022-09-21T07:07:26.222Z,4.95
2022-09-21T07:07:59.563Z,20.33
2022-09-21T07:10:20.615Z,24.65
2022-09-21T07:10:53.860Z,17.30
2022-09-21T07:11:27.355Z,23.55
2022-09-21T07:12:00.098Z,35.03
2022-09-21T07:12:34.538Z,25.20
2022-09-21T07:13:09.397Z,18.17
2022-09-21T07:13:41.921Z,19.40
2022-09-21T07:14:14.779Z,28.67
2022-09-21T07:14:47.619Z,20.88
2022-09-21T07:15:19.535Z,15.93
2022-09-21T07:15:53.432Z,13.65
2022-09-21T07:16:25.418Z,6.68
2022-09-21T07:16:58.173Z,6.53
2022-09-21T07:17:32.173Z,6.68
2022-09-21T07:18:12.545Z,5.53
2022-09-21T07:18:44.526Z,6.13
2022-09-21T07:19:19.061Z,5.07
2022-09-21T07:19:50.822Z,4.72
2022-09-21T07:20:22.621Z,9.00
2022-09-21T07:20:55.356Z,13.13
2022-09-21T07:21:27.129Z,14.30
2022-09-21T07:21:59.901Z,14.35
2022-09-21T07:22:32.081Z,14.80
2022-09-21T07:23:11.931Z,24.00
2022-09-21T07:23:43.700Z,55.72
2022-09-21T07:24:16.623Z,62.72
2022-09-21T07:24:48.391Z,62.05
2022-09-21T07:25:20.189Z,46.90
2022-09-21T07:25:53.066Z,45.80
2022-09-21T07:26:24.884Z,43.95
2022-09-21T07:26:57.370Z,43.28
2022-09-21T07:27:31.572Z,40.50
2022-09-21T07:28:03.604Z,31.23
2022-09-21T07:28:36.898Z,18.48
2022-09-21T07:29:08.814Z,14.35
2022-09-21T07:29:40.623Z,11.77
2022-09-21T07:30:13.612Z,11.48
2022-09-21T07:30:45.416Z,7.07
2022-09-21T07:31:17.695Z,4.63
2022-09-21T07:31:50.569Z,6.38
2022-09-21T07:32:22.416Z,4.65
2022-09-21T07:32:54.187Z,5.22
2022-09-21T07:33:27.426Z,2.85
2022-09-21T07:33:59.249Z,5.90
2022-09-21T07:34:35.250Z,4.40
2022-09-21T07:35:08.671Z,4.32
2022-09-21T07:35:40.494Z,4.35
2022-09-21T07:36:13.174Z,4.30
2022-09-21T07:36:46.041Z,5.05
2022-09-21T07:37:17.918Z,3.47
2022-09-21T07:37:49.756Z,3.20
2022-09-21T07:38:22.657Z,5.65
2022-09-21T07:38:54.519Z,3.65
2022-09-21T07:39:27.240Z,4.00
2022-09-21T07:39:59.098Z,3.33
2022-09-21T07:40:32.087Z,5.15
2022-09-21T07:41:04.140Z,3.75
2022-09-21T07:41:36.968Z,3.80
2022-09-21T07:42:08.835Z,3.80